Time;durP1;ratioP1;P1;durP2;ratioP2;P2;SDS_P1;SDS_P2;PMS_P1;PMS_P2;Temp;Humidity;BMP_temperature;BMP_pressure;BME280_temperature;BME280_humidity;BME280_pressure;Samples;Min_cycle;Max_cycle;Signal;HPM_P1;HPM_P2
2022/04/23 00:02:08;;;;;;;9.25;7.38;;;;;;;;;;6247169;23;20035;-78
2022/04/23 00:04:34;;;;;;;8.85;6.78;;;;;;;;;;6246933;23;20075;-77
2022/04/23 00:07:01;;;;;;;11.48;7.53;;;;;;;;;;6246868;23;20026;-77
2022/04/23 00:09:27;;;;;;;7.03;6.28;;;;;;;;;;6246886;23;20454;-77
2022/04/23 00:11:55;;;;;;;8.32;7.35;;;;;;;;;;6246834;23;20007;-77
2022/04/23 00:14:21;;;;;;;7.78;6.82;;;;;;;;;;6246750;23;20024;-77
2022/04/23 00:16:50;;;;;;;8.15;6.82;;;;;;;;;;6219653;23;20012;-77
2022/04/23 00:19:16;;;;;;;9.48;6.97;;;;;;;;;;6220001;23;20004;-78
2022/04/23 00:21:43;;;;;;;9.13;6.25;;;;;;;;;;6220093;23;20008;-77
2022/04/23 00:24:09;;;;;;;6.80;6.10;;;;;;;;;;6246717;23;20424;-79
2022/04/23 00:26:35;;;;;;;8.30;6.32;;;;;;;;;;6247028;23;20004;-78
2022/04/23 00:29:01;;;;;;;10.70;7.38;;;;;;;;;;6246638;23;20000;-78
2022/04/23 00:31:27;;;;;;;8.60;6.72;;;;;;;;;;6246753;23;19999;-79
2022/04/23 00:33:54;;;;;;;11.02;6.78;;;;;;;;;;6246540;23;20016;-78
2022/04/23 00:36:23;;;;;;;7.85;6.97;;;;;;;;;;6246747;23;20011;-79
2022/04/23 00:38:52;;;;;;;8.60;6.68;;;;;;;;;;6246545;23;20015;-78
2022/04/23 00:44:03;;;;;;;;;;;;;;;;;;6224596;23;20047;-79
2022/04/23 00:46:29;;;;;;;7.78;6.97;;;;;;;;;;6246509;23;19903;-78
2022/04/23 00:48:55;;;;;;;7.95;6.63;;;;;;;;;;6246910;23;20055;-79
2022/04/23 00:51:21;;;;;;;8.25;7.05;;;;;;;;;;6246551;23;20014;-80
2022/04/23 00:53:48;;;;;;;7.00;6.30;;;;;;;;;;6246302;23;20071;-78
2022/04/23 00:56:15;;;;;;;15.52;12.65;;;;;;;;;;6246465;23;20326;-79
2022/04/23 00:58:41;;;;;;;78.07;64.50;;;;;;;;;;6246387;23;20031;-77
2022/04/23 01:01:07;;;;;;;15.88;13.25;;;;;;;;;;6246822;23;20000;-78
2022/04/23 01:03:33;;;;;;;27.48;21.00;;;;;;;;;;6246415;23;20007;-78
2022/04/23 01:05:59;;;;;;;27.88;23.45;;;;;;;;;;6246224;23;20332;-79
2022/04/23 01:08:26;;;;;;;9.88;7.35;;;;;;;;;;6246337;23;19996;-79
2022/04/23 01:10:53;;;;;;;8.20;5.88;;;;;;;;;;6246314;23;20063;-78
2022/04/23 01:13:19;;;;;;;18.38;16.45;;;;;;;;;;6246373;23;20004;-79
2022/04/23 01:16:03;;;;;;;24.42;18.85;;;;;;;;;;6246276;23;20000;-79
2022/04/23 01:18:29;;;;;;;29.10;24.17;;;;;;;;;;6246375;23;19996;-79
2022/04/23 01:20:56;;;;;;;21.98;19.67;;;;;;;;;;6246280;23;20209;-78
2022/04/23 01:23:23;;;;;;;8.88;7.80;;;;;;;;;;6246413;23;20000;-79
2022/04/23 01:25:55;;;;;;;8.15;7.30;;;;;;;;;;6246130;23;20452;-79
2022/04/23 01:28:21;;;;;;;8.07;6.55;;;;;;;;;;6246141;23;20023;-79
2022/04/23 01:30:49;;;;;;;7.32;6.28;;;;;;;;;;6246168;23;20019;-78
2022/04/23 01:33:15;;;;;;;12.25;10.93;;;;;;;;;;6246190;23;20046;-79
2022/04/23 01:35:41;;;;;;;94.25;75.50;;;;;;;;;;6246248;23;20018;-80
2022/04/23 01:38:07;;;;;;;12.45;10.93;;;;;;;;;;6246168;23;20075;-79
2022/04/23 01:40:33;;;;;;;8.45;6.28;;;;;;;;;;6246245;23;20011;-78
2022/04/23 01:42:59;;;;;;;6.90;6.20;;;;;;;;;;6246231;23;20011;-78
2022/04/23 01:45:25;;;;;;;7.75;5.50;;;;;;;;;;6246199;23;20000;-78
2022/04/23 01:47:52;;;;;;;8.70;6.03;;;;;;;;;;6246184;23;20012;-78
2022/04/23 01:50:18;;;;;;;6.28;5.68;;;;;;;;;;6246233;23;20440;-78
2022/04/23 01:52:44;;;;;;;7.28;5.28;;;;;;;;;;6246061;23;20370;-78
2022/04/23 01:55:10;;;;;;;6.30;5.70;;;;;;;;;;6245828;23;20023;-77
2022/04/23 01:57:37;;;;;;;8.23;5.75;;;;;;;;;;6246085;23;20000;-79
2022/04/23 02:00:05;;;;;;;7.20;5.50;;;;;;;;;;6246214;23;20003;-78
2022/04/23 02:02:31;;;;;;;7.45;5.00;;;;;;;;;;6246066;23;20342;-78
2022/04/23 02:04:58;;;;;;;5.90;5.05;;;;;;;;;;6246001;23;20000;-78
2022/04/23 02:07:24;;;;;;;7.97;5.53;;;;;;;;;;6219014;23;20367;-78
2022/04/23 02:09:51;;;;;;;6.10;5.50;;;;;;;;;;6246411;23;20537;-78
2022/04/23 02:12:17;;;;;;;8.05;5.75;;;;;;;;;;6245995;23;20000;-78
2022/04/23 02:14:43;;;;;;;6.20;5.60;;;;;;;;;;6245946;23;20371;-77
2022/04/23 02:17:09;;;;;;;7.38;5.93;;;;;;;;;;6246183;23;20011;-78
2022/04/23 02:19:36;;;;;;;7.38;5.80;;;;;;;;;;6245973;23;20008;-79
2022/04/23 02:22:02;;;;;;;7.10;5.82;;;;;;;;;;6246095;23;20000;-79
2022/04/23 02:24:29;;;;;;;8.40;5.43;;;;;;;;;;6245920;23;20000;-79
2022/04/23 02:26:55;;;;;;;6.47;5.25;;;;;;;;;;6245773;23;20000;-79
2022/04/23 02:29:21;;;;;;;6.10;5.32;;;;;;;;;;6246041;23;20011;-80
2022/04/23 02:31:47;;;;;;;10.35;6.15;;;;;;;;;;6245949;23;20071;-78
2022/04/23 02:34:13;;;;;;;6.30;5.50;;;;;;;;;;6245950;23;20007;-78
2022/04/23 02:36:39;;;;;;;6.63;5.80;;;;;;;;;;6245873;23;20011;-78
2022/04/23 02:39:06;;;;;;;32.10;24.85;;;;;;;;;;6245980;23;20111;-79
2022/04/23 02:41:32;;;;;;;18.33;14.02;;;;;;;;;;6220170;23;20401;-79
2022/04/23 02:43:59;;;;;;;16.60;12.50;;;;;;;;;;6247806;23;20000;-78
2022/04/23 02:46:25;;;;;;;13.60;10.63;;;;;;;;;;6221134;23;20004;-79
2022/04/23 02:48:51;;;;;;;12.38;9.10;;;;;;;;;;6248234;23;20043;-77
2022/04/23 02:51:18;;;;;;;10.45;8.60;;;;;;;;;;6220937;23;20016;-79
2022/04/23 02:53:44;;;;;;;11.73;8.82;;;;;;;;;;6247388;23;19996;-79
2022/04/23 02:56:16;;;;;;;12.57;9.32;;;;;;;;;;6247619;23;20011;-77
2022/04/23 02:58:43;;;;;;;9.52;7.95;;;;;;;;;;6247635;23;20023;-77
2022/04/23 03:01:10;;;;;;;12.15;8.23;;;;;;;;;;6247511;23;20084;-78
2022/04/23 03:03:40;;;;;;;9.52;7.90;;;;;;;;;;6247653;23;20000;-77
2022/04/23 03:06:07;;;;;;;9.45;8.02;;;;;;;;;;6220619;23;20008;-79
2022/04/23 03:08:33;;;;;;;8.85;7.05;;;;;;;;;;6247506;23;19996;-78
2022/04/23 03:10:59;;;;;;;8.18;7.05;;;;;;;;;;6246842;23;20000;-78
2022/04/23 03:13:26;;;;;;;11.30;7.63;;;;;;;;;;6247315;23;20424;-80
2022/04/23 03:15:52;;;;;;;10.90;7.60;;;;;;;;;;6247340;23;20011;-80
2022/04/23 03:18:18;;;;;;;8.93;7.28;;;;;;;;;;6220501;23;20040;-79
2022/04/23 03:20:45;;;;;;;14.23;10.88;;;;;;;;;;6247340;23;20002;-79
2022/04/23 03:23:12;;;;;;;11.15;9.68;;;;;;;;;;6247378;23;20054;-79
2022/04/23 03:25:40;;;;;;;17.13;12.73;;;;;;;;;;6247616;23;20000;-78
2022/04/23 03:28:06;;;;;;;11.55;7.60;;;;;;;;;;6247245;23;20004;-77
2022/04/23 03:30:32;;;;;;;9.38;7.32;;;;;;;;;;6247281;23;20432;-78
2022/04/23 03:32:59;;;;;;;12.30;9.30;;;;;;;;;;6247309;23;19996;-79
2022/04/23 03:35:26;;;;;;;9.38;7.45;;;;;;;;;;6247168;23;19996;-79
2022/04/23 03:37:52;;;;;;;9.98;9.07;;;;;;;;;;6247062;23;20011;-79
2022/04/23 03:40:18;;;;;;;11.02;7.97;;;;;;;;;;6247245;23;20000;-78
2022/04/23 03:42:48;;;;;;;8.38;7.55;;;;;;;;;;6220291;23;20436;-79
2022/04/23 03:48:01;;;;;;;8.32;7.50;;;;;;;;;;6247431;23;20018;-78
2022/04/23 03:50:28;;;;;;;8.00;6.57;;;;;;;;;;6247108;23;20007;-79
2022/04/23 03:52:56;;;;;;;7.80;6.32;;;;;;;;;;6247024;23;20007;-78
2022/04/23 03:55:22;;;;;;;9.95;6.55;;;;;;;;;;6246839;23;20379;-79
2022/04/23 03:57:49;;;;;;;7.85;7.05;;;;;;;;;;6246904;23;20324;-78
2022/04/23 04:00:16;;;;;;;11.85;9.60;;;;;;;;;;6247132;23;20029;-79
2022/04/23 04:02:43;;;;;;;13.77;9.68;;;;;;;;;;6246898;23;20000;-77
2022/04/23 04:05:10;;;;;;;10.93;8.40;;;;;;;;;;6247101;23;20000;-78
2022/04/23 04:07:40;;;;;;;8.80;7.43;;;;;;;;;;6220007;23;20011;-79
2022/04/23 04:10:09;;;;;;;8.73;7.90;;;;;;;;;;6247160;23;19996;-79
2022/04/23 04:12:35;;;;;;;8.52;7.45;;;;;;;;;;6247134;23;20007;-79
2022/04/23 04:15:03;;;;;;;8.65;7.25;;;;;;;;;;6219810;23;20079;-79
2022/04/23 04:17:29;;;;;;;10.35;7.90;;;;;;;;;;6246775;23;20431;-79
2022/04/23 04:19:56;;;;;;;12.38;8.80;;;;;;;;;;6220381;23;20004;-79
2022/04/23 04:22:22;;;;;;;11.57;8.88;;;;;;;;;;6246819;23;20062;-78
2022/04/23 04:24:52;;;;;;;10.27;7.90;;;;;;;;;;6246793;23;20435;-78
2022/04/23 04:27:21;;;;;;;11.98;8.65;;;;;;;;;;6246614;23;20000;-77
2022/04/23 04:29:48;;;;;;;13.38;8.88;;;;;;;;;;6246659;23;20007;-78
2022/04/23 04:32:14;;;;;;;9.05;8.15;;;;;;;;;;6246742;23;20423;-79
2022/04/23 04:34:40;;;;;;;13.00;8.95;;;;;;;;;;6246668;23;20054;-78
2022/04/23 04:37:08;;;;;;;9.60;7.80;;;;;;;;;;6246662;23;20420;-79
2022/04/23 04:39:35;;;;;;;9.57;8.15;;;;;;;;;;6246572;23;20075;-79
2022/04/23 04:42:01;;;;;;;10.57;8.20;;;;;;;;;;6246656;23;20008;-78
2022/04/23 04:44:27;;;;;;;14.23;12.57;;;;;;;;;;6246596;23;20024;-79
2022/04/23 04:46:54;;;;;;;24.15;18.17;;;;;;;;;;6246556;23;20138;-77
2022/04/23 04:49:22;;;;;;;10.05;8.60;;;;;;;;;;6246577;23;20012;-78
2022/04/23 04:51:49;;;;;;;10.77;9.15;;;;;;;;;;6219576;23;20483;-77
2022/04/23 04:54:17;;;;;;;11.75;8.48;;;;;;;;;;6246235;23;20428;-80
2022/04/23 04:56:44;;;;;;;10.35;7.88;;;;;;;;;;6246287;23;19992;-77
2022/04/23 04:59:10;;;;;;;15.32;12.38;;;;;;;;;;6219816;23;20368;-77
2022/04/23 05:01:36;;;;;;;10.75;9.15;;;;;;;;;;6219498;23;20012;-80
2022/04/23 05:04:04;;;;;;;14.00;9.65;;;;;;;;;;6246141;23;20004;-79
2022/04/23 05:06:30;;;;;;;14.90;12.70;;;;;;;;;;6219022;23;20008;-79
2022/04/23 05:08:56;;;;;;;15.15;11.38;;;;;;;;;;6246143;23;19996;-78
2022/04/23 05:11:22;;;;;;;18.60;15.38;;;;;;;;;;6246173;23;20461;-78
2022/04/23 05:13:48;;;;;;;26.52;16.35;;;;;;;;;;6246508;23;20007;-77
2022/04/23 05:16:15;;;;;;;24.95;15.93;;;;;;;;;;6219433;23;20336;-78
2022/04/23 05:18:41;;;;;;;13.55;9.50;;;;;;;;;;6246274;23;20015;-79
2022/04/23 05:21:07;;;;;;;12.25;9.32;;;;;;;;;;6246301;23;20002;-78
2022/04/23 05:23:33;;;;;;;17.20;12.73;;;;;;;;;;6246186;23;20010;-78
2022/04/23 05:26:00;;;;;;;12.90;11.00;;;;;;;;;;6219777;23;20008;-78
2022/04/23 05:28:26;;;;;;;15.20;11.63;;;;;;;;;;6246235;23;20459;-78
2022/04/23 05:30:52;;;;;;;17.35;12.55;;;;;;;;;;6245042;23;20416;-78
2022/04/23 05:33:18;;;;;;;16.80;10.35;;;;;;;;;;6242528;23;20022;-77
2022/04/23 05:35:44;;;;;;;12.90;9.90;;;;;;;;;;6245273;23;20020;-76
2022/04/23 05:38:10;;;;;;;13.57;10.43;;;;;;;;;;6245041;23;20009;-77
2022/04/23 05:40:36;;;;;;;13.13;9.55;;;;;;;;;;6245200;23;20044;-76
2022/04/23 05:43:03;;;;;;;13.15;9.88;;;;;;;;;;6245034;23;20004;-77
2022/04/23 05:45:30;;;;;;;14.07;9.82;;;;;;;;;;6245081;23;20054;-77
2022/04/23 05:47:59;;;;;;;12.23;10.43;;;;;;;;;;6245209;23;20430;-77
2022/04/23 05:50:26;;;;;;;13.75;9.38;;;;;;;;;;6245008;23;20468;-77
2022/04/23 05:52:52;;;;;;;12.55;8.65;;;;;;;;;;6245214;23;20000;-78
2022/04/23 05:55:18;;;;;;;14.25;10.80;;;;;;;;;;6244661;23;20428;-77
2022/04/23 05:57:45;;;;;;;17.52;13.13;;;;;;;;;;6245169;23;20496;-77
2022/04/23 06:00:12;;;;;;;15.88;9.73;;;;;;;;;;6218167;23;20012;-77
2022/04/23 06:02:38;;;;;;;15.40;11.13;;;;;;;;;;6217799;23;20761;-77
2022/04/23 06:05:05;;;;;;;11.68;8.75;;;;;;;;;;6218934;23;20007;-78
2022/04/23 06:07:31;;;;;;;10.57;8.00;;;;;;;;;;6245654;23;19996;-78
2022/04/23 06:09:57;;;;;;;10.82;8.23;;;;;;;;;;6245770;23;19997;-77
2022/04/23 06:12:24;;;;;;;9.90;7.82;;;;;;;;;;6245703;23;19993;-78
2022/04/23 06:14:50;;;;;;;10.23;7.25;;;;;;;;;;6245996;23;20001;-78
2022/04/23 06:17:17;;;;;;;10.77;7.10;;;;;;;;;;6247788;23;20431;-77
2022/04/23 06:19:43;;;;;;;9.70;7.82;;;;;;;;;;6247748;23;20034;-78
2022/04/23 06:22:09;;;;;;;10.10;7.90;;;;;;;;;;6247797;23;20007;-77
2022/04/23 06:24:36;;;;;;;10.20;7.20;;;;;;;;;;6247627;23;20027;-77
2022/04/23 06:27:02;;;;;;;11.25;7.28;;;;;;;;;;6246959;23;20079;-79
2022/04/23 06:29:28;;;;;;;9.55;5.93;;;;;;;;;;6245588;23;20007;-78
2022/04/23 06:31:54;;;;;;;11.02;6.10;;;;;;;;;;6246998;23;20004;-78
2022/04/23 06:34:20;;;;;;;6.97;5.50;;;;;;;;;;6246727;23;20382;-78
2022/04/23 06:36:47;;;;;;;8.73;5.75;;;;;;;;;;6220145;23;20460;-78
2022/04/23 06:39:13;;;;;;;9.68;6.00;;;;;;;;;;6220169;23;20019;-76
2022/04/23 06:41:39;;;;;;;11.40;6.20;;;;;;;;;;6246815;23;20015;-80
2022/04/23 06:44:05;;;;;;;10.80;6.10;;;;;;;;;;6246684;23;20011;-80
2022/04/23 06:46:31;;;;;;;8.55;5.78;;;;;;;;;;6246371;23;20000;-80
2022/04/23 06:49:00;;;;;;;8.23;5.53;;;;;;;;;;6246820;23;20458;-82
2022/04/23 06:51:26;;;;;;;10.27;6.15;;;;;;;;;;6246317;23;20460;-78
2022/04/23 06:53:52;;;;;;;23.17;17.77;;;;;;;;;;6246683;23;20012;-79
2022/04/23 06:56:18;;;;;;;13.40;8.40;;;;;;;;;;6246559;23;20301;-78
2022/04/23 06:58:46;;;;;;;11.48;7.00;;;;;;;;;;6246584;23;20027;-78
2022/04/23 07:01:12;;;;;;;8.18;5.35;;;;;;;;;;6247362;23;20006;-80
2022/04/23 07:03:38;;;;;;;6.50;4.60;;;;;;;;;;6247288;23;19996;-80
2022/04/23 07:06:05;;;;;;;8.40;5.40;;;;;;;;;;6247062;23;20439;-79
2022/04/23 07:08:31;;;;;;;5.90;4.78;;;;;;;;;;6247206;23;20430;-80
2022/04/23 07:10:58;;;;;;;7.97;4.10;;;;;;;;;;6247357;23;20067;-77
2022/04/23 07:13:25;;;;;;;6.07;4.32;;;;;;;;;;6247467;23;20004;-79
2022/04/23 07:15:51;;;;;;;5.97;3.70;;;;;;;;;;6247500;23;20004;-79
2022/04/23 07:18:17;;;;;;;5.63;3.95;;;;;;;;;;6247148;23;20004;-84
2022/04/23 07:20:43;;;;;;;4.90;3.67;;;;;;;;;;6247060;23;20450;-83
2022/04/23 07:25:55;;;;;;;5.38;3.40;;;;;;;;;;6247010;23;20074;-77
2022/04/23 07:28:21;;;;;;;5.57;3.00;;;;;;;;;;6246955;23;20096;-78
2022/04/23 07:30:47;;;;;;;6.28;3.63;;;;;;;;;;6247314;23;20367;-78
2022/04/23 07:37:28;;;;;;;7.85;3.30;;;;;;;;;;6246867;23;20000;-76
2022/04/23 07:38:44;;;;;;;5.97;3.60;;;;;;;;;;6247328;23;20015;-77
2022/04/23 07:41:11;;;;;;;5.93;3.83;;;;;;;;;;6246976;23;20000;-79
2022/04/23 07:43:38;;;;;;;5.90;3.72;;;;;;;;;;6246851;23;20000;-78
2022/04/23 07:46:04;;;;;;;7.88;3.30;;;;;;;;;;6246848;23;20059;-80
2022/04/23 07:48:30;;;;;;;7.28;3.55;;;;;;;;;;6247301;23;20011;-80
2022/04/23 07:50:56;;;;;;;19.23;16.55;;;;;;;;;;6246888;23;20008;-78
2022/04/23 07:53:23;;;;;;;9.20;5.40;;;;;;;;;;6246986;23;20000;-78
2022/04/23 07:55:50;;;;;;;10.30;4.20;;;;;;;;;;6246814;23;20039;-77
2022/04/23 07:58:16;;;;;;;6.40;3.70;;;;;;;;;;6246674;23;20007;-77
2022/04/23 08:00:43;;;;;;;7.07;4.30;;;;;;;;;;6220038;23;20373;-80
2022/04/23 08:03:09;;;;;;;6.45;3.03;;;;;;;;;;6246827;23;19996;-79
2022/04/23 08:05:35;;;;;;;8.90;4.10;;;;;;;;;;6246767;23;19992;-80
2022/04/23 08:08:02;;;;;;;8.73;3.42;;;;;;;;;;6246582;23;20004;-79
2022/04/23 08:10:28;;;;;;;7.45;3.75;;;;;;;;;;6246635;23;20430;-79
2022/04/23 08:12:55;;;;;;;6.97;3.35;;;;;;;;;;6246550;23;20068;-79
2022/04/23 08:15:22;;;;;;;5.70;3.33;;;;;;;;;;6246607;23;20079;-80
2022/04/23 08:17:48;;;;;;;9.20;4.07;;;;;;;;;;6219823;23;20317;-81
2022/04/23 08:20:14;;;;;;;8.63;4.63;;;;;;;;;;6246616;23;20000;-81
2022/04/23 08:22:40;;;;;;;5.97;3.75;;;;;;;;;;6246669;23;20000;-78
2022/04/23 08:25:07;;;;;;;6.80;3.30;;;;;;;;;;6246586;23;20110;-81
2022/04/23 08:27:49;;;;;;;7.10;3.50;;;;;;;;;;6246375;23;20419;-81
2022/04/23 08:33:00;;;;;;;;;;;;;;;;;;6247173;23;20058;-79
2022/04/23 08:35:26;;;;;;;13.07;3.38;;;;;;;;;;6246409;23;19946;-80
2022/04/23 08:37:52;;;;;;;9.45;3.42;;;;;;;;;;6245884;23;20004;-79
2022/04/23 08:40:19;;;;;;;11.70;3.72;;;;;;;;;;6246345;23;20031;-78
2022/04/23 08:42:45;;;;;;;9.35;3.58;;;;;;;;;;6246503;23;20075;-79
2022/04/23 08:45:12;;;;;;;6.95;2.92;;;;;;;;;;6246318;23;20107;-79
2022/04/23 08:47:44;;;;;;;8.07;3.60;;;;;;;;;;6246387;23;20046;-81
2022/04/23 08:50:10;;;;;;;10.23;3.30;;;;;;;;;;6246242;23;20001;-79
2022/04/23 08:52:37;;;;;;;9.32;3.15;;;;;;;;;;6246346;23;20332;-80
2022/04/23 08:55:04;;;;;;;9.18;3.47;;;;;;;;;;6245882;23;20082;-80
2022/04/23 08:57:30;;;;;;;7.25;3.13;;;;;;;;;;6246368;23;20000;-79
2022/04/23 09:00:00;;;;;;;9.80;3.65;;;;;;;;;;6246181;23;20054;-81
2022/04/23 09:02:30;;;;;;;11.82;3.05;;;;;;;;;;6219288;23;20004;-82
2022/04/23 09:04:58;;;;;;;8.40;3.40;;;;;;;;;;6246044;23;20008;-82
2022/04/23 09:07:26;;;;;;;9.77;3.42;;;;;;;;;;6245883;23;20059;-81
2022/04/23 09:09:53;;;;;;;7.20;3.28;;;;;;;;;;6245877;23;20000;-82
2022/04/23 09:12:20;;;;;;;9.98;3.25;;;;;;;;;;6245918;23;20443;-81
2022/04/23 09:14:49;;;;;;;7.00;3.17;;;;;;;;;;6246270;23;20095;-81
2022/04/23 09:25:43;;;;;;;14.27;3.78;;;;;;;;;;6245980;23;20023;-81
2022/04/23 09:28:18;;;;;;;9.13;3.25;;;;;;;;;;6245833;23;20004;-80
2022/04/23 09:30:45;;;;;;;13.38;3.55;;;;;;;;;;6245871;23;20455;-81
2022/04/23 09:33:12;;;;;;;9.40;3.05;;;;;;;;;;6245982;23;20071;-81
2022/04/23 09:35:57;;;;;;;13.68;3.25;;;;;;;;;;6246025;23;20075;-81
2022/04/23 09:38:23;;;;;;;10.18;3.63;;;;;;;;;;6245939;23;20379;-81
2022/04/23 09:40:51;;;;;;;12.35;3.85;;;;;;;;;;6246005;23;20007;-81
2022/04/23 09:43:24;;;;;;;12.75;3.80;;;;;;;;;;6219163;23;20012;-80
2022/04/23 09:45:58;;;;;;;11.65;3.83;;;;;;;;;;6245913;23;20333;-81
2022/04/23 09:48:25;;;;;;;10.52;4.00;;;;;;;;;;6246282;23;20479;-79
2022/04/23 09:50:51;;;;;;;12.65;4.90;;;;;;;;;;6248848;23;20012;-80
2022/04/23 09:53:18;;;;;;;8.68;3.20;;;;;;;;;;6249160;23;20330;-80
2022/04/23 09:55:51;;;;;;;11.48;4.40;;;;;;;;;;6222215;23;20026;-80
2022/04/23 09:58:17;;;;;;;12.52;3.13;;;;;;;;;;6249192;23;20001;-81
2022/04/23 10:00:47;;;;;;;8.45;2.78;;;;;;;;;;6249155;23;20000;-82
2022/04/23 10:03:14;;;;;;;18.10;3.22;;;;;;;;;;6249157;23;20000;-83
2022/04/23 10:05:41;;;;;;;13.07;3.28;;;;;;;;;;6222779;23;20428;-80
2022/04/23 10:08:26;;;;;;;9.68;2.72;;;;;;;;;;6222505;23;20015;-81
2022/04/23 10:11:11;;;;;;;10.50;3.25;;;;;;;;;;6223068;23;20004;-81
2022/04/23 10:13:40;;;;;;;12.88;3.55;;;;;;;;;;6249175;23;19996;-80
2022/04/23 10:16:08;;;;;;;9.95;2.50;;;;;;;;;;6249016;23;20412;-81
2022/04/23 10:21:30;;;;;;;7.05;2.60;;;;;;;;;;6249153;23;20058;-81
2022/04/23 10:23:58;;;;;;;;;;;;;;;;;;6222724;23;20000;-82
2022/04/23 10:26:29;;;;;;;8.80;2.30;;;;;;;;;;6249115;23;19899;-81
2022/04/23 10:28:56;;;;;;;13.40;2.50;;;;;;;;;;6249207;23;20000;-81
2022/04/23 10:31:23;;;;;;;12.73;3.15;;;;;;;;;;6249178;23;20030;-81
2022/04/23 10:33:51;;;;;;;14.23;3.70;;;;;;;;;;6249181;23;19997;-80
2022/04/23 10:36:21;;;;;;;11.77;2.88;;;;;;;;;;6249090;23;20531;-81
2022/04/23 10:38:51;;;;;;;12.02;2.25;;;;;;;;;;6248985;23;20023;-81
2022/04/23 10:41:19;;;;;;;11.00;3.05;;;;;;;;;;6249045;23;20075;-80
2022/04/23 10:44:04;;;;;;;9.45;2.30;;;;;;;;;;6249064;23;20000;-80
2022/04/23 10:46:40;;;;;;;11.63;2.92;;;;;;;;;;6222022;23;20031;-82
2022/04/23 10:49:13;;;;;;;7.22;2.15;;;;;;;;;;6221883;23;20058;-80
2022/04/23 10:51:47;;;;;;;9.30;2.95;;;;;;;;;;6222919;23;20379;-81
2022/04/23 10:54:15;;;;;;;13.90;2.47;;;;;;;;;;6248845;23;20019;-82
2022/04/23 10:56:48;;;;;;;6.85;2.70;;;;;;;;;;6249001;23;20000;-80
2022/04/23 10:59:34;;;;;;;7.57;2.70;;;;;;;;;;6222522;23;20320;-81
2022/04/23 11:02:06;;;;;;;8.27;3.47;;;;;;;;;;6247268;23;20007;-81
2022/04/23 11:04:33;;;;;;;11.07;2.75;;;;;;;;;;6221206;23;20004;-81
2022/04/23 11:12:36;;;;;;;12.27;2.72;;;;;;;;;;6247439;23;20015;-81
2022/04/23 11:15:13;;;;;;;8.75;2.47;;;;;;;;;;6220359;23;20004;-80
2022/04/23 11:17:39;;;;;;;12.30;3.17;;;;;;;;;;6247277;23;20336;-80
2022/04/23 11:20:05;;;;;;;10.90;2.25;;;;;;;;;;6247039;23;20004;-80
2022/04/23 11:22:32;;;;;;;9.55;2.35;;;;;;;;;;6247055;23;20011;-80
2022/04/23 11:24:59;;;;;;;8.25;2.15;;;;;;;;;;6246982;23;20008;-80
2022/04/23 11:27:26;;;;;;;12.07;2.45;;;;;;;;;;6247218;23;20011;-81
2022/04/23 11:29:52;;;;;;;8.88;2.30;;;;;;;;;;6247079;23;20000;-80
2022/04/23 11:32:29;;;;;;;11.00;2.40;;;;;;;;;;6247123;23;20005;-80
2022/04/23 11:34:58;;;;;;;9.57;2.55;;;;;;;;;;6246856;23;20000;-80
2022/04/23 11:37:30;;;;;;;10.18;2.05;;;;;;;;;;6247222;23;20000;-80
2022/04/23 11:40:10;;;;;;;10.60;3.13;;;;;;;;;;6246894;23;20007;-80
2022/04/23 11:42:55;;;;;;;7.15;2.53;;;;;;;;;;6246895;23;20007;-81
2022/04/23 11:45:23;;;;;;;12.10;3.00;;;;;;;;;;6246954;23;20007;-81
2022/04/23 11:47:50;;;;;;;9.32;3.40;;;;;;;;;;6246817;23;20385;-82
2022/04/23 11:50:18;;;;;;;13.18;2.63;;;;;;;;;;6220064;23;20050;-82
2022/04/23 11:52:57;;;;;;;10.30;2.67;;;;;;;;;;6246966;23;19996;-82
2022/04/23 11:55:24;;;;;;;6.60;2.10;;;;;;;;;;6246921;23;20015;-81
2022/04/23 11:58:08;;;;;;;12.57;2.75;;;;;;;;;;6246772;23;20428;-81
2022/04/23 12:00:37;;;;;;;9.57;2.63;;;;;;;;;;6246915;23;20436;-80
2022/04/23 12:03:03;;;;;;;8.63;2.33;;;;;;;;;;6219889;23;19996;-79
2022/04/23 12:05:30;;;;;;;11.77;2.72;;;;;;;;;;6247104;23;20000;-79
2022/04/23 12:07:57;;;;;;;10.40;2.25;;;;;;;;;;6246575;23;20000;-80
2022/04/23 12:10:30;;;;;;;7.97;2.40;;;;;;;;;;6247044;23;20000;-79
2022/04/23 12:13:00;;;;;;;10.45;2.58;;;;;;;;;;6246080;23;20054;-79
2022/04/23 12:15:26;;;;;;;7.57;2.20;;;;;;;;;;6246730;23;19996;-79
2022/04/23 12:17:53;;;;;;;7.20;2.35;;;;;;;;;;6246490;23;20443;-78
2022/04/23 12:20:23;;;;;;;10.90;2.97;;;;;;;;;;6246756;23;20011;-79
2022/04/23 12:22:55;;;;;;;12.90;3.80;;;;;;;;;;6246434;23;20396;-78
2022/04/23 12:25:29;;;;;;;12.73;2.65;;;;;;;;;;6246729;23;20004;-78
2022/04/23 12:27:55;;;;;;;;;;;;;;;;;;6246865;23;20007;-79
2022/04/23 12:42:03;;;;;;;12.73;3.30;;;;;;;;;;6246310;23;20066;-79
2022/04/23 12:44:34;;;;;;;11.15;2.60;;;;;;;;;;6246470;23;20000;-79
2022/04/23 12:47:01;;;;;;;7.60;2.50;;;;;;;;;;6246149;23;20014;-80
2022/04/23 12:49:47;;;;;;;8.63;3.60;;;;;;;;;;6246551;23;20094;-80
2022/04/23 12:52:24;;;;;;;10.80;2.85;;;;;;;;;;6246607;23;20002;-78
2022/04/23 12:55:09;;;;;;;6.57;2.13;;;;;;;;;;6218946;23;20020;-80
2022/04/23 12:57:35;;;;;;;10.57;2.50;;;;;;;;;;6246636;23;20011;-80
2022/04/23 13:00:01;;;;;;;7.00;2.03;;;;;;;;;;6246137;23;20023;-80
2022/04/23 13:02:36;;;;;;;13.75;2.70;;;;;;;;;;6246152;23;20000;-80
2022/04/23 13:05:07;;;;;;;8.93;2.08;;;;;;;;;;6246049;23;20000;-80
2022/04/23 13:10:17;;;;;;;8.80;3.55;;;;;;;;;;6246618;23;20110;-78
2022/04/23 13:12:44;;;;;;;12.23;3.40;;;;;;;;;;6246004;23;20011;-78
2022/04/23 13:15:11;;;;;;;15.07;4.93;;;;;;;;;;6246392;23;20063;-79
2022/04/23 13:17:38;;;;;;;13.55;3.75;;;;;;;;;;6246371;23;20011;-79
2022/04/23 13:20:08;;;;;;;14.07;4.70;;;;;;;;;;6219374;23;20004;-78
2022/04/23 13:22:35;;;;;;;13.38;3.55;;;;;;;;;;6246317;23;20007;-80
2022/04/23 13:25:02;;;;;;;7.32;2.65;;;;;;;;;;6246000;23;20012;-81
2022/04/23 13:27:29;;;;;;;8.52;2.75;;;;;;;;;;6246050;23;20062;-81
2022/04/23 13:30:00;;;;;;;9.02;3.63;;;;;;;;;;6246319;23;20003;-80
2022/04/23 13:32:26;;;;;;;8.15;2.63;;;;;;;;;;6219276;23;20059;-80
2022/04/23 13:34:52;;;;;;;9.65;3.30;;;;;;;;;;6246158;23;20301;-80
2022/04/23 13:37:21;;;;;;;10.60;3.25;;;;;;;;;;6219460;23;20004;-81
2022/04/23 13:39:47;;;;;;;10.13;4.13;;;;;;;;;;6246130;23;20000;-81
2022/04/23 13:42:13;;;;;;;10.70;2.72;;;;;;;;;;6246179;23;20067;-80
2022/04/23 13:44:40;;;;;;;9.65;2.47;;;;;;;;;;6246023;23;20419;-80
2022/04/23 13:47:06;;;;;;;9.88;2.70;;;;;;;;;;6246026;23;20004;-80
2022/04/23 13:49:35;;;;;;;12.05;3.08;;;;;;;;;;6246256;23;20007;-80
2022/04/23 13:52:02;;;;;;;8.75;3.33;;;;;;;;;;6246477;23;20086;-80
2022/04/23 13:54:28;;;;;;;11.32;4.20;;;;;;;;;;6245901;23;20083;-80
2022/04/23 13:56:54;;;;;;;9.63;2.70;;;;;;;;;;6246080;23;20137;-80
2022/04/23 13:59:20;;;;;;;9.27;2.95;;;;;;;;;;6219544;23;20381;-80
2022/04/23 14:10:04;;;;;;;13.13;3.90;;;;;;;;;;6245975;23;20072;-80
2022/04/23 14:10:04;;;;;;;11.00;5.00;;;;;;;;;;6246326;23;19910;-79
2022/04/23 14:12:30;;;;;;;13.93;5.88;;;;;;;;;;6246028;23;20483;-80
2022/04/23 14:14:56;;;;;;;11.57;3.78;;;;;;;;;;6245903;23;20067;-79
2022/04/23 14:17:22;;;;;;;10.70;4.47;;;;;;;;;;6245949;23;20482;-79
2022/04/23 14:19:49;;;;;;;14.05;4.05;;;;;;;;;;6245927;23;20000;-79
2022/04/23 14:22:15;;;;;;;13.05;5.78;;;;;;;;;;6246061;23;20332;-80
2022/04/23 14:24:41;;;;;;;8.52;4.25;;;;;;;;;;6245593;23;20004;-80
2022/04/23 14:27:09;;;;;;;11.85;4.68;;;;;;;;;;6218956;23;20031;-79
2022/04/23 14:29:38;;;;;;;8.20;3.90;;;;;;;;;;6245902;23;20024;-79
2022/04/23 14:32:05;;;;;;;10.98;3.38;;;;;;;;;;6219005;23;20088;-81
2022/04/23 14:34:31;;;;;;;8.40;2.70;;;;;;;;;;6245950;23;20000;-80
2022/04/23 14:36:57;;;;;;;6.72;3.28;;;;;;;;;;6246772;23;20008;-80
2022/04/23 14:39:26;;;;;;;9.80;3.88;;;;;;;;;;6247801;23;20065;-80
2022/04/23 14:41:56;;;;;;;9.73;3.78;;;;;;;;;;6248159;23;20015;-79
2022/04/23 14:44:25;;;;;;;8.95;3.85;;;;;;;;;;6220881;23;20335;-79
2022/04/23 14:46:54;;;;;;;8.65;2.53;;;;;;;;;;6247626;23;20000;-80
2022/04/23 14:49:21;;;;;;;9.02;2.42;;;;;;;;;;6247675;23;20391;-80
2022/04/23 14:54:41;;;;;;;8.52;2.60;;;;;;;;;;6247531;23;20030;-78
2022/04/23 14:57:10;;;;;;;8.70;2.05;;;;;;;;;;6220792;23;20079;-80
2022/04/23 14:59:38;;;;;;;15.25;6.75;;;;;;;;;;6247586;23;19996;-80
2022/04/23 15:02:04;;;;;;;8.20;3.25;;;;;;;;;;6247540;23;19997;-80
2022/04/23 15:04:31;;;;;;;8.18;2.50;;;;;;;;;;6247502;23;20039;-80
2022/04/23 15:06:58;;;;;;;14.23;5.70;;;;;;;;;;6247949;23;20000;-81
2022/04/23 15:09:24;;;;;;;7.88;3.30;;;;;;;;;;6247600;23;20000;-82
2022/04/23 15:11:51;;;;;;;11.40;6.63;;;;;;;;;;6247507;23;20007;-81
2022/04/23 15:14:17;;;;;;;10.40;3.22;;;;;;;;;;6220562;23;20000;-82
2022/04/23 15:16:44;;;;;;;10.80;3.97;;;;;;;;;;6247546;23;20071;-81
2022/04/23 15:19:10;;;;;;;11.23;4.10;;;;;;;;;;6220688;23;20000;-82
2022/04/23 15:21:38;;;;;;;8.98;3.50;;;;;;;;;;6220751;23;20008;-81
2022/04/23 15:24:05;;;;;;;7.57;2.45;;;;;;;;;;6247752;23;20432;-82
2022/04/23 15:26:31;;;;;;;6.38;2.17;;;;;;;;;;6247301;23;20415;-82
2022/04/23 15:29:08;;;;;;;5.63;2.47;;;;;;;;;;6247522;23;20000;-81
2022/04/23 15:31:35;;;;;;;9.07;2.58;;;;;;;;;;6247371;23;19996;-80
2022/04/23 15:34:01;;;;;;;9.60;2.85;;;;;;;;;;6247617;23;20078;-80